LTCK/MSR METAR and TAF weather

Enter ICAO airport designator
Station Type Date Time Source
LTCK METAR 2021/07/26 13:50 UTC NOAA

LTCK 261350Z 25013KT 9999 FEW040 34/05 Q1013


Station Type Date Time Source
LTCK Decoded METAR 2021/07/26 13:50 UTC NOAA

Mus Tur-Afb , Turkey (LTCK) 38-45N 041-40E
Jul 26, 2021 - 09:50 AM EDT / 2021.07.26 1350 UTC
Wind: from the WSW (250 degrees) at 15 MPH (13 KT):0
Visibility: greater than 7 mile(s):0
Sky conditions: mostly clear
Temperature: 93 F (34 C)
Dew Point: 41 F (5 C)
Relative Humidity: 16%
Pressure (altimeter): 29.91 in. Hg (1013 hPa)
ob: LTCK 261350Z 25013KT 9999 FEW040 34/05 Q1013
cycle: 14

Station Type Date Time Source
LTCK TAF UTC NOAA

Error!

Example: see airport list